Time;durP1;ratioP1;P1;durP2;ratioP2;P2;SDS_P1;SDS_P2;PMS_P1;PMS_P2;Temp;Humidity;BMP_temperature;BMP_pressure;BME280_temperature;BME280_humidity;BME280_pressure;Samples;Min_cycle;Max_cycle;Signal;HPM_P1;HPM_P2
2021/12/19 00:01:33;;;;;;;26.30;17.47;;;6.80;99.90;;;;;;5054720;28;20663;-78
2021/12/19 00:04:27;;;;;;;30.63;17.60;;;6.80;99.90;;;;;;5055125;28;20198;-78
2021/12/19 00:09:31;;;;;;;26.50;16.43;;;6.80;99.90;;;;;;5054835;28;20202;-78
2021/12/19 00:11:58;;;;;;;30.97;16.90;;;6.80;99.90;;;;;;5054999;28;20183;-78
2021/12/19 00:14:23;;;;;;;25.77;16.43;;;6.80;99.90;;;;;;5054573;28;20184;-79
2021/12/19 00:16:56;;;;;;;30.10;17.40;;;6.80;99.90;;;;;;5054185;28;20630;-78
2021/12/19 00:19:22;;;;;;;27.40;16.37;;;6.80;99.90;;;;;;5036918;28;20572;-78
2021/12/19 00:21:48;;;;;;;23.47;15.70;;;6.70;99.90;;;;;;5054181;28;20248;-78
2021/12/19 00:24:14;;;;;;;23.80;15.33;;;6.80;99.90;;;;;;5054733;28;20188;-78
2021/12/19 00:29:22;;;;;;;26.57;16.13;;;6.80;99.90;;;;;;5053793;28;20219;-79
2021/12/19 00:31:48;;;;;;;28.90;16.00;;;6.80;99.90;;;;;;5056052;28;20528;-79
2021/12/19 00:34:15;;;;;;;26.07;15.20;;;6.80;99.90;;;;;;5057957;28;20171;-79
2021/12/19 00:36:41;;;;;;;31.37;17.10;;;6.80;99.90;;;;;;5056825;28;20653;-79
2021/12/19 00:39:07;;;;;;;24.33;15.33;;;6.80;99.90;;;;;;5057201;28;20203;-78
2021/12/19 00:41:32;;;;;;;26.33;15.53;;;6.80;99.90;;;;;;5076498;28;20186;-78
2021/12/19 00:44:13;;;;;;;23.87;15.27;;;6.80;99.90;;;;;;5075867;28;20720;-79
2021/12/19 00:46:46;;;;;;;26.67;15.80;;;6.80;99.90;;;;;;5076205;28;20198;-79
2021/12/19 00:49:13;;;;;;;23.07;15.30;;;6.80;99.90;;;;;;5058863;28;20227;-79
2021/12/19 00:51:38;;;;;;;25.10;15.43;;;6.80;99.90;;;;;;5080008;28;20696;-78
2021/12/19 00:54:09;;;;;;;28.90;15.23;;;6.80;99.90;;;;;;5062376;28;20187;-79
2021/12/19 00:56:36;;;;;;;25.80;15.30;;;6.80;99.90;;;;;;5079741;28;20162;-79
2021/12/19 00:59:01;;;;;;;25.53;15.77;;;6.80;99.90;;;;;;5079581;28;20202;-77
2021/12/19 01:01:27;;;;;;;23.43;14.10;;;6.80;99.90;;;;;;5062171;28;20242;-79
2021/12/19 01:03:53;;;;;;;22.00;14.90;;;6.80;99.90;;;;;;5063408;28;20235;-79
2021/12/19 01:06:19;;;;;;;22.53;13.33;;;6.80;99.90;;;;;;5060637;28;20672;-78
2021/12/19 01:08:45;;;;;;;26.10;15.27;;;6.80;99.90;;;;;;5079104;28;20203;-79
2021/12/19 01:11:11;;;;;;;23.57;14.63;;;6.80;99.90;;;;;;5079193;28;20177;-78
2021/12/19 01:13:36;;;;;;;21.93;13.87;;;6.80;99.90;;;;;;5061201;28;20193;-79
2021/12/19 01:16:02;;;;;;;21.60;13.37;;;6.80;99.90;;;;;;5061008;28;20233;-78
2021/12/19 01:18:28;;;;;;;22.23;12.77;;;6.80;99.90;;;;;;5078757;28;20195;-79
2021/12/19 01:20:55;;;;;;;22.37;14.00;;;6.80;99.90;;;;;;5079089;28;20270;-79
2021/12/19 01:23:22;;;;;;;20.10;13.03;;;6.80;99.90;;;;;;5079492;28;20527;-79
2021/12/19 01:25:51;;;;;;;20.47;14.07;;;6.80;99.90;;;;;;5061372;28;20197;-79
2021/12/19 01:28:16;;;;;;;20.23;12.40;;;6.80;99.90;;;;;;5060873;28;20222;-79
2021/12/19 01:30:42;;;;;;;21.80;12.87;;;6.90;99.90;;;;;;5061406;28;20186;-79
2021/12/19 01:33:08;;;;;;;21.40;14.40;;;6.90;99.90;;;;;;5079328;28;20651;-79
2021/12/19 01:35:33;;;;;;;22.93;13.00;;;6.80;99.90;;;;;;5060717;28;20179;-78
2021/12/19 01:38:00;;;;;;;22.53;13.20;;;6.90;99.90;;;;;;5060805;28;20233;-79
2021/12/19 01:40:25;;;;;;;21.47;13.47;;;6.80;99.90;;;;;;5078974;28;20190;-78
2021/12/19 01:42:54;;;;;;;22.30;13.03;;;6.90;99.90;;;;;;5060765;28;20187;-78
2021/12/19 01:45:30;;;;;;;21.37;13.60;;;6.90;99.90;;;;;;5060329;28;20183;-79
2021/12/19 01:47:57;;;;;;;25.10;14.33;;;6.90;99.90;;;;;;5060102;28;20237;-79
2021/12/19 01:50:23;;;;;;;24.43;14.47;;;6.90;99.90;;;;;;5078618;28;20664;-79
2021/12/19 01:52:49;;;;;;;22.33;13.17;;;6.90;99.90;;;;;;5078096;28;20187;-79
2021/12/19 01:55:15;;;;;;;21.33;13.10;;;6.90;99.90;;;;;;5060400;28;20279;-79
2021/12/19 01:57:41;;;;;;;22.17;14.93;;;6.80;99.90;;;;;;5060106;28;20204;-79
2021/12/19 02:00:17;;;;;;;18.40;12.50;;;6.80;99.90;;;;;;5060087;28;20195;-78
2021/12/19 02:02:43;;;;;;;21.33;13.50;;;6.80;99.90;;;;;;5061565;28;20171;-79
2021/12/19 02:05:08;;;;;;;22.17;13.17;;;6.80;99.90;;;;;;5060185;28;20184;-79
2021/12/19 02:07:34;;;;;;;26.43;13.30;;;6.80;99.90;;;;;;5060022;28;20301;-78
2021/12/19 02:09:59;;;;;;;25.13;13.17;;;6.80;99.90;;;;;;5060093;28;20240;-79
2021/12/19 02:12:25;;;;;;;22.30;13.17;;;6.80;99.90;;;;;;5078703;28;20661;-79
2021/12/19 02:14:50;;;;;;;22.00;13.60;;;6.80;99.90;;;;;;5077970;28;20235;-79
2021/12/19 02:17:16;;;;;;;25.03;13.50;;;6.80;99.90;;;;;;5078605;28;20288;-79
2021/12/19 02:19:42;;;;;;;20.30;12.97;;;6.80;99.90;;;;;;5078436;28;20194;-78
2021/12/19 02:22:08;;;;;;;22.63;13.73;;;6.80;99.90;;;;;;5059874;28;20187;-79
2021/12/19 02:24:34;;;;;;;24.20;13.13;;;6.80;99.90;;;;;;5059857;28;20588;-79
2021/12/19 02:27:00;;;;;;;23.27;13.50;;;6.80;99.90;;;;;;5077954;28;20263;-79
2021/12/19 02:29:26;;;;;;;23.93;13.40;;;6.80;99.90;;;;;;5078108;28;20171;-79
2021/12/19 02:31:51;;;;;;;23.90;13.77;;;6.80;99.90;;;;;;5077409;28;20175;-79
2021/12/19 02:34:21;;;;;;;28.83;14.53;;;6.80;99.90;;;;;;5059286;28;20178;-78
2021/12/19 02:50:17;;;;;;;24.70;14.63;;;6.80;99.90;;;;;;5078282;28;20640;-78
2021/12/19 02:52:43;;;;;;;22.63;14.27;;;6.80;99.90;;;;;;5076984;28;20159;-78
2021/12/19 02:55:10;;;;;;;26.13;14.73;;;6.80;99.90;;;;;;5077106;28;20650;-78
2021/12/19 02:57:37;;;;;;;26.90;14.93;;;6.80;99.90;;;;;;5059295;28;20213;-78
2021/12/19 03:00:08;;;;;;;25.40;15.73;;;6.80;99.90;;;;;;5077413;28;20652;-78
2021/12/19 03:02:34;;;;;;;27.37;15.00;;;6.80;99.90;;;;;;5077401;28;20167;-78
2021/12/19 03:05:01;;;;;;;23.83;15.23;;;6.80;99.90;;;;;;5076835;28;20206;-79
2021/12/19 03:07:27;;;;;;;20.10;13.73;;;6.80;99.90;;;;;;5076111;28;20206;-78
2021/12/19 03:10:41;;;;;;;30.07;15.87;;;6.80;99.90;;;;;;5058504;28;20174;-78
2021/12/19 03:18:14;;;;;;;25.20;15.03;;;6.80;99.90;;;;;;5076429;28;20256;-79
2021/12/19 03:20:41;;;;;;;24.37;14.70;;;6.80;99.90;;;;;;5059357;28;20706;-78
2021/12/19 03:23:09;;;;;;;24.63;15.33;;;6.80;99.90;;;;;;5076672;28;20186;-79
2021/12/19 03:25:35;;;;;;;27.50;15.77;;;6.80;99.90;;;;;;5076921;28;20609;-79
2021/12/19 03:28:03;;;;;;;27.53;15.80;;;6.80;99.90;;;;;;5058491;28;20215;-78
2021/12/19 03:30:30;;;;;;;26.70;15.17;;;6.80;99.90;;;;;;5076468;28;20191;-79
2021/12/19 03:32:56;;;;;;;27.30;14.67;;;6.80;99.90;;;;;;5076806;28;20223;-79
2021/12/19 03:35:23;;;;;;;24.50;14.90;;;6.80;99.90;;;;;;5076724;28;20177;-79
2021/12/19 03:37:51;;;;;;;23.57;14.97;;;6.80;99.90;;;;;;5058571;28;20213;-79
2021/12/19 03:40:24;;;;;;;25.10;14.23;;;6.80;99.90;;;;;;5075693;28;20186;-78
2021/12/19 03:42:52;;;;;;;24.07;13.97;;;6.80;99.90;;;;;;5076310;28;20182;-79
2021/12/19 03:45:21;;;;;;;27.40;15.43;;;6.80;99.90;;;;;;5075865;28;20178;-79
2021/12/19 03:47:47;;;;;;;23.17;13.93;;;6.80;99.90;;;;;;5076166;28;20296;-79
2021/12/19 03:50:17;;;;;;;23.17;14.30;;;6.80;99.90;;;;;;5076174;28;20186;-79
2021/12/19 03:52:42;;;;;;;23.97;13.43;;;6.80;99.90;;;;;;5058094;28;20185;-80
2021/12/19 03:55:08;;;;;;;22.33;13.70;;;6.80;99.90;;;;;;5058134;28;20179;-78
2021/12/19 03:57:34;;;;;;;22.73;13.63;;;6.80;99.90;;;;;;5075915;28;20198;-79
2021/12/19 03:59:59;;;;;;;21.33;13.17;;;6.80;99.90;;;;;;5058405;28;20369;-78
2021/12/19 04:02:27;;;;;;;24.43;13.93;;;6.80;99.90;;;;;;5076696;28;20183;-79
2021/12/19 04:04:55;;;;;;;23.53;12.90;;;6.80;99.90;;;;;;5058303;28;20588;-79
2021/12/19 04:07:21;;;;;;;23.13;12.50;;;6.80;99.90;;;;;;5075894;28;20202;-79
2021/12/19 04:09:47;;;;;;;22.13;12.57;;;6.80;99.90;;;;;;5058445;28;20254;-79
2021/12/19 04:12:13;;;;;;;23.50;12.30;;;6.80;99.90;;;;;;5057490;28;20261;-78
2021/12/19 04:14:39;;;;;;;18.60;11.90;;;6.80;99.90;;;;;;5075822;28;20206;-78
2021/12/19 04:17:04;;;;;;;22.60;12.70;;;6.80;99.90;;;;;;5076066;28;20185;-78
2021/12/19 04:19:31;;;;;;;22.40;13.13;;;6.80;99.90;;;;;;5058223;28;20618;-79
2021/12/19 04:21:58;;;;;;;21.20;12.47;;;6.80;99.90;;;;;;5076244;28;20184;-79
2021/12/19 04:24:23;;;;;;;22.67;12.13;;;6.80;99.90;;;;;;5077245;28;20182;-78
2021/12/19 04:26:49;;;;;;;20.00;11.70;;;6.80;99.90;;;;;;5079676;28;20275;-78
2021/12/19 04:29:15;;;;;;;22.87;12.57;;;6.90;99.90;;;;;;5062507;28;20591;-78
2021/12/19 04:31:40;;;;;;;21.27;11.67;;;6.80;99.90;;;;;;5080392;28;20226;-79
2021/12/19 04:34:06;;;;;;;19.43;11.43;;;6.80;99.90;;;;;;5080495;28;20616;-79
2021/12/19 04:36:37;;;;;;;23.27;11.50;;;6.80;99.90;;;;;;5079941;28;20202;-79
2021/12/19 05:15:50;;;;;;;27.27;11.63;;;6.80;99.90;;;;;;5037279;28;20230;-78
2021/12/19 05:18:16;;;;;;;24.63;10.67;;;6.70;99.90;;;;;;5062698;28;20203;-79
2021/12/19 05:20:52;;;;;;;20.50;10.67;;;6.70;99.90;;;;;;5079168;28;20167;-78
2021/12/19 05:23:37;;;;;;;21.37;10.67;;;6.70;99.90;;;;;;5062917;28;20178;-78
2021/12/19 05:26:03;;;;;;;22.43;10.37;;;6.70;99.90;;;;;;5078748;28;20670;-78
2021/12/19 05:28:29;;;;;;;19.90;9.93;;;6.60;99.90;;;;;;5079349;28;20293;-79
2021/12/19 05:30:54;;;;;;;22.83;9.70;;;6.60;99.90;;;;;;5079793;28;20667;-79
2021/12/19 05:33:20;;;;;;;21.57;9.83;;;6.60;99.90;;;;;;5079289;28;20179;-79
2021/12/19 05:36:03;;;;;;;18.70;10.13;;;6.60;99.90;;;;;;5077985;28;20181;-79
2021/12/19 05:46:38;;;;;;;22.97;10.57;;;6.50;99.90;;;;;;5097426;28;20191;-78
2021/12/19 05:49:04;;;;;;;20.83;10.30;;;6.50;99.90;;;;;;5097638;28;20195;-78
2021/12/19 05:51:30;;;;;;;23.77;10.37;;;6.50;99.90;;;;;;5080247;28;20251;-78
2021/12/19 05:53:56;;;;;;;25.97;10.60;;;6.50;99.90;;;;;;5097618;28;20228;-78
2021/12/19 05:56:22;;;;;;;20.87;10.10;;;6.60;99.90;;;;;;5079022;28;20186;-78
2021/12/19 05:58:47;;;;;;;24.90;11.43;;;6.60;99.90;;;;;;5085168;28;20235;-79
2021/12/19 06:01:13;;;;;;;19.13;10.77;;;6.50;99.90;;;;;;5084817;28;20190;-79
2021/12/19 06:03:39;;;;;;;23.97;11.07;;;6.50;99.90;;;;;;5062052;28;20187;-79
2021/12/19 06:06:06;;;;;;;23.30;11.47;;;6.50;99.90;;;;;;5061737;28;20187;-78
2021/12/19 06:08:31;;;;;;;22.93;11.17;;;6.50;99.90;;;;;;5083789;28;20198;-79
2021/12/19 06:10:57;;;;;;;26.43;11.67;;;6.50;99.90;;;;;;5064217;28;20186;-80
2021/12/19 06:13:22;;;;;;;23.43;12.00;;;6.50;99.90;;;;;;5078951;28;20201;-79
2021/12/19 06:15:53;;;;;;;23.67;11.90;;;6.50;99.90;;;;;;5079250;28;20608;-79
2021/12/19 06:18:19;;;;;;;22.33;11.50;;;6.40;99.90;;;;;;5079061;28;20286;-79
2021/12/19 06:20:46;;;;;;;25.30;12.37;;;6.50;99.90;;;;;;5079012;28;20215;-79
2021/12/19 06:23:11;;;;;;;26.23;12.17;;;6.50;99.90;;;;;;5078486;28;20185;-78
2021/12/19 06:25:37;;;;;;;26.77;12.97;;;6.50;99.90;;;;;;5078549;28;20194;-79
2021/12/19 06:28:03;;;;;;;28.63;13.53;;;6.50;99.90;;;;;;5060518;28;20223;-79
2021/12/19 06:30:29;;;;;;;32.27;13.50;;;6.50;99.90;;;;;;5060631;28;20640;-79
2021/12/19 06:32:54;;;;;;;33.63;15.63;;;6.50;99.90;;;;;;5078682;28;20691;-79
2021/12/19 06:35:22;;;;;;;33.43;14.97;;;6.50;99.90;;;;;;5078184;28;20190;-79
2021/12/19 06:37:49;;;;;;;33.23;15.13;;;6.50;99.90;;;;;;5059909;28;20209;-78
2021/12/19 06:40:18;;;;;;;31.17;14.53;;;6.50;99.90;;;;;;5078664;28;20262;-79
2021/12/19 06:42:44;;;;;;;31.43;15.07;;;6.50;99.90;;;;;;5078340;28;20182;-79
2021/12/19 06:45:10;;;;;;;28.27;13.27;;;6.50;99.90;;;;;;5077277;28;20629;-79
2021/12/19 06:47:37;;;;;;;24.67;11.63;;;6.40;99.90;;;;;;5060003;28;20218;-79
2021/12/19 06:50:03;;;;;;;23.60;12.67;;;6.40;99.90;;;;;;5060033;28;20185;-78
2021/12/19 06:52:29;;;;;;;21.00;11.43;;;6.30;99.90;;;;;;5077416;28;20175;-78
2021/12/19 06:54:54;;;;;;;22.60;10.73;;;6.30;99.90;;;;;;5077124;28;20645;-79
2021/12/19 06:57:20;;;;;;;25.70;11.37;;;6.30;99.90;;;;;;5059886;28;20299;-79
2021/12/19 06:59:47;;;;;;;22.13;10.33;;;6.30;99.90;;;;;;5077486;28;20182;-79
2021/12/19 07:02:15;;;;;;;21.20;9.77;;;6.30;99.90;;;;;;5059277;28;20209;-79
2021/12/19 07:04:42;;;;;;;16.43;10.03;;;6.30;99.90;;;;;;5059255;28;20187;-79
2021/12/19 07:07:07;;;;;;;17.10;9.50;;;6.30;99.90;;;;;;5077125;28;20898;-79
2021/12/19 07:09:33;;;;;;;17.80;9.33;;;6.20;99.90;;;;;;5076884;28;20182;-79
2021/12/19 07:11:59;;;;;;;14.10;8.30;;;6.20;99.90;;;;;;5077674;28;20206;-79
2021/12/19 07:14:24;;;;;;;16.20;9.33;;;6.20;99.90;;;;;;5047232;28;20176;-78
2021/12/19 07:16:50;;;;;;;16.40;8.73;;;6.20;99.90;;;;;;5049731;28;20193;-79
2021/12/19 07:19:16;;;;;;;15.33;8.00;;;6.20;99.90;;;;;;5066914;28;20183;-78
2021/12/19 07:21:41;;;;;;;17.83;8.27;;;6.20;99.90;;;;;;5065893;28;20179;-78
2021/12/19 07:24:07;;;;;;;16.13;8.07;;;6.20;99.90;;;;;;5053154;28;20183;-78
2021/12/19 07:26:32;;;;;;;19.90;9.13;;;6.20;99.90;;;;;;5067663;28;20226;-78
2021/12/19 07:28:58;;;;;;;16.27;7.87;;;6.20;99.90;;;;;;5057000;28;20219;-78
2021/12/19 07:31:24;;;;;;;14.73;8.70;;;6.20;99.90;;;;;;5059926;28;20710;-78
2021/12/19 07:33:50;;;;;;;18.43;8.17;;;6.30;99.90;;;;;;5049944;28;20179;-78
2021/12/19 07:36:18;;;;;;;11.43;7.30;;;6.30;99.90;;;;;;5078868;28;20163;-78
2021/12/19 07:39:04;;;;;;;14.57;7.37;;;6.30;99.90;;;;;;5075930;28;20191;-78
2021/12/19 07:41:30;;;;;;;13.37;6.93;;;6.30;99.90;;;;;;5077226;28;20181;-79
2021/12/19 07:43:56;;;;;;;11.90;6.63;;;6.30;99.90;;;;;;5079253;28;20179;-78
2021/12/19 07:46:21;;;;;;;11.70;6.20;;;6.30;99.90;;;;;;5059131;28;20195;-79
2021/12/19 07:48:47;;;;;;;10.50;6.50;;;6.30;99.90;;;;;;5077622;28;20199;-78
2021/12/19 07:51:13;;;;;;;10.13;5.80;;;6.30;99.90;;;;;;5076527;28;20193;-78
2021/12/19 07:53:38;;;;;;;10.93;5.37;;;6.30;99.90;;;;;;5076498;28;20235;-79
2021/12/19 07:56:04;;;;;;;11.70;6.33;;;6.30;99.90;;;;;;5076637;28;20175;-78
2021/12/19 07:58:29;;;;;;;12.60;6.83;;;6.30;99.90;;;;;;5076456;28;20194;-79
2021/12/19 08:00:55;;;;;;;12.67;6.60;;;6.30;99.90;;;;;;5060694;28;20239;-79
2021/12/19 08:03:21;;;;;;;10.93;6.97;;;6.30;99.90;;;;;;5059836;28;20656;-79
2021/12/19 08:05:46;;;;;;;11.67;6.20;;;6.30;99.90;;;;;;5083118;28;20181;-78
2021/12/19 08:08:16;;;;;;;12.13;7.07;;;6.30;99.90;;;;;;5075890;28;20664;-79
2021/12/19 08:13:08;;;;;;;11.40;5.93;;;6.30;99.90;;;;;;5076946;28;20167;-78
2021/12/19 08:15:34;;;;;;;11.33;6.83;;;6.30;99.90;;;;;;5059035;28;20183;-78
2021/12/19 08:18:00;;;;;;;12.43;6.13;;;6.40;99.90;;;;;;5076520;28;20202;-78
2021/12/19 08:20:27;;;;;;;10.97;6.30;;;6.30;99.90;;;;;;5082448;28;20179;-78
2021/12/19 08:22:53;;;;;;;8.97;5.70;;;6.40;99.90;;;;;;5075241;28;20174;-78
2021/12/19 08:25:19;;;;;;;11.63;6.20;;;6.40;99.90;;;;;;5093459;28;20188;-77
2021/12/19 08:27:45;;;;;;;12.33;6.10;;;6.40;99.90;;;;;;5073190;28;20211;-77
2021/12/19 08:30:14;;;;;;;8.83;5.73;;;6.40;99.90;;;;;;5071063;28;20240;-78
2021/12/19 08:32:39;;;;;;;11.23;6.60;;;6.40;99.90;;;;;;5074775;28;20225;-78
2021/12/19 08:35:07;;;;;;;10.07;6.40;;;6.50;99.90;;;;;;5075389;28;20175;-78
2021/12/19 08:37:34;;;;;;;10.40;6.37;;;6.50;99.90;;;;;;5075104;28;20256;-78
2021/12/19 08:40:00;;;;;;;9.40;6.13;;;6.50;99.90;;;;;;5074809;28;20598;-78
2021/12/19 08:42:25;;;;;;;10.73;6.33;;;6.50;99.90;;;;;;5056401;28;20190;-78
2021/12/19 08:44:51;;;;;;;9.70;6.23;;;6.50;99.90;;;;;;5056707;28;20198;-78
2021/12/19 08:47:17;;;;;;;11.43;6.67;;;6.50;99.90;;;;;;5074551;28;20222;-78
2021/12/19 08:49:43;;;;;;;11.93;6.83;;;6.50;99.90;;;;;;5075346;28;20183;-78
2021/12/19 08:52:10;;;;;;;9.83;6.30;;;6.60;99.90;;;;;;5074766;28;20179;-78
2021/12/19 08:54:36;;;;;;;10.17;6.73;;;6.60;99.90;;;;;;5075309;28;20228;-78
2021/12/19 08:57:02;;;;;;;11.27;6.97;;;6.60;99.90;;;;;;5074673;28;20632;-78
2021/12/19 08:59:29;;;;;;;15.90;6.93;;;6.60;99.90;;;;;;5075049;28;20540;-78
2021/12/19 09:01:57;;;;;;;10.50;6.43;;;6.60;99.90;;;;;;5074639;28;20185;-77
2021/12/19 09:04:23;;;;;;;9.77;5.70;;;6.60;99.90;;;;;;5075227;28;20179;-78
2021/12/19 09:06:49;;;;;;;9.30;6.40;;;6.60;99.90;;;;;;5056827;28;20220;-76
2021/12/19 09:09:15;;;;;;;11.47;7.10;;;6.60;99.90;;;;;;5074795;28;20190;-78
2021/12/19 09:11:41;;;;;;;10.57;6.37;;;6.60;99.90;;;;;;5059538;28;20178;-78
2021/12/19 09:14:07;;;;;;;9.33;5.67;;;6.60;99.90;;;;;;5060354;28;20189;-78
2021/12/19 09:16:32;;;;;;;13.90;5.93;;;6.70;99.90;;;;;;5060020;28;20192;-78
2021/12/19 09:18:58;;;;;;;15.10;5.93;;;6.70;99.90;;;;;;5078356;28;20202;-78
2021/12/19 09:21:24;;;;;;;9.43;5.23;;;6.70;99.90;;;;;;5078737;28;20262;-78
2021/12/19 09:23:49;;;;;;;10.27;5.73;;;6.70;99.90;;;;;;5078233;28;20656;-78
2021/12/19 09:26:15;;;;;;;9.43;6.27;;;6.70;99.90;;;;;;5078728;28;20268;-78
2021/12/19 09:28:41;;;;;;;10.07;6.07;;;6.70;99.90;;;;;;5077905;28;20292;-78
2021/12/19 09:31:07;;;;;;;9.80;5.77;;;6.70;99.90;;;;;;5077993;28;20230;-78
2021/12/19 09:33:32;;;;;;;7.43;5.03;;;6.80;99.90;;;;;;5077713;28;20171;-79
2021/12/19 09:35:59;;;;;;;7.83;5.80;;;6.80;99.90;;;;;;5078410;28;20194;-78
2021/12/19 09:38:25;;;;;;;9.13;5.50;;;6.70;99.90;;;;;;5077410;28;20664;-78
2021/12/19 09:40:58;;;;;;;6.40;5.00;;;6.70;99.90;;;;;;5077737;28;20178;-78
2021/12/19 09:43:41;;;;;;;7.43;5.47;;;6.70;99.90;;;;;;5077839;28;20522;-77
2021/12/19 09:46:12;;;;;;;8.30;4.80;;;6.70;99.90;;;;;;5078674;28;20162;-78
2021/12/19 09:48:40;;;;;;;6.80;4.87;;;6.70;99.90;;;;;;5062297;28;20199;-78
2021/12/19 09:51:08;;;;;;;5.73;4.83;;;6.80;99.90;;;;;;5080931;28;20171;-78
2021/12/19 09:53:34;;;;;;;7.87;5.40;;;6.80;99.90;;;;;;5077244;28;20180;-78
2021/12/19 09:56:00;;;;;;;8.27;5.40;;;6.70;99.90;;;;;;5076779;28;20245;-78
2021/12/19 09:58:25;;;;;;;6.77;5.07;;;6.70;99.90;;;;;;5076899;28;20287;-78
2021/12/19 10:00:53;;;;;;;7.93;5.47;;;6.70;99.90;;;;;;5078413;28;20539;-78
2021/12/19 10:03:20;;;;;;;7.93;5.03;;;6.70;99.90;;;;;;5058514;28;20175;-78
2021/12/19 10:05:45;;;;;;;7.87;5.17;;;6.80;99.90;;;;;;5076698;28;20173;-78
2021/12/19 10:08:11;;;;;;;7.33;4.70;;;6.70;99.90;;;;;;5076862;28;20215;-78
2021/12/19 10:10:46;;;;;;;8.27;4.50;;;6.70;99.90;;;;;;5076266;28;20268;-78
2021/12/19 10:13:13;;;;;;;8.47;4.57;;;6.70;99.90;;;;;;5076287;28;20621;-77
2021/12/19 10:15:42;;;;;;;7.17;4.87;;;6.70;99.90;;;;;;5058240;28;20185;-78
2021/12/19 10:18:09;;;;;;;6.70;4.70;;;6.70;99.90;;;;;;5057771;28;20213;-78
2021/12/19 10:20:48;;;;;;;6.17;4.57;;;6.70;99.90;;;;;;5076228;28;20179;-78
2021/12/19 10:23:16;;;;;;;7.03;4.97;;;6.70;99.90;;;;;;5075507;28;20212;-78
2021/12/19 10:25:42;;;;;;;8.10;4.90;;;6.70;99.90;;;;;;5076989;28;20179;-78
2021/12/19 10:28:09;;;;;;;8.47;4.87;;;6.70;99.90;;;;;;5076335;28;20214;-78
2021/12/19 10:34:22;;;;;;;8.27;4.80;;;6.60;99.90;;;;;;5075031;28;20166;-78
2021/12/19 10:36:48;;;;;;;6.73;4.77;;;6.70;99.90;;;;;;5076895;28;20186;-78
2021/12/19 10:39:17;;;;;;;6.27;4.47;;;6.70;99.90;;;;;;5058754;28;20185;-78
2021/12/19 10:41:43;;;;;;;6.33;4.00;;;6.70;99.90;;;;;;5058345;28;20675;-79
2021/12/19 10:45:29;;;;;;;7.37;3.77;;;6.70;99.90;;;;;;5077424;28;20175;-79
2021/12/19 10:46:55;;;;;;;4.30;3.20;;;6.80;99.90;;;;;;5076964;28;20212;-78
2021/12/19 10:49:32;;;;;;;5.47;3.20;;;6.90;99.90;;;;;;5077049;28;20178;-79
2021/12/19 10:52:04;;;;;;;5.90;3.70;;;6.70;99.90;;;;;;5077456;28;20625;-79
2021/12/19 10:54:30;;;;;;;5.20;2.80;;;6.70;99.90;;;;;;5058606;28;20174;-79
2021/12/19 10:57:07;;;;;;;4.57;3.40;;;6.80;99.90;;;;;;5076756;28;20258;-79
2021/12/19 10:59:34;;;;;;;4.30;2.60;;;6.80;99.90;;;;;;5058732;28;20186;-79
2021/12/19 11:02:00;;;;;;;3.27;2.03;;;6.70;99.90;;;;;;5077140;28;20183;-79
2021/12/19 11:04:25;;;;;;;4.07;2.43;;;6.70;99.90;;;;;;5059267;28;20194;-79
2021/12/19 11:06:59;;;;;;;3.60;2.53;;;6.70;99.90;;;;;;5077090;28;20238;-79
2021/12/19 11:09:29;;;;;;;3.73;2.67;;;6.70;99.90;;;;;;5077372;28;20151;-79
2021/12/19 11:12:01;;;;;;;3.90;3.00;;;6.70;99.90;;;;;;5076431;28;20641;-79
2021/12/19 11:14:45;;;;;;;3.13;2.50;;;6.70;99.90;;;;;;5078428;28;20170;-80
2021/12/19 11:17:18;;;;;;;6.13;2.90;;;6.70;99.90;;;;;;5058572;28;20207;-79
2021/12/19 11:19:44;;;;;;;5.63;3.10;;;6.80;99.90;;;;;;5076708;28;20163;-79
2021/12/19 11:22:11;;;;;;;5.13;3.50;;;6.80;99.90;;;;;;5076252;28;20183;-80
2021/12/19 11:24:38;;;;;;;4.43;2.87;;;6.80;99.90;;;;;;5058712;28;20190;-79
2021/12/19 11:27:06;;;;;;;3.60;2.20;;;6.80;99.90;;;;;;5058226;28;20237;-79
2021/12/19 11:29:32;;;;;;;3.27;2.23;;;6.80;99.90;;;;;;5076699;28;20300;-79
2021/12/19 11:32:03;;;;;;;3.50;2.40;;;6.80;99.90;;;;;;5076612;28;20203;-79
2021/12/19 11:35:15;;;;;;;4.13;2.40;;;6.80;99.90;;;;;;5058671;28;20648;-79
2021/12/19 11:37:48;;;;;;;4.10;2.30;;;6.80;99.90;;;;;;5014621;28;20211;-80
2021/12/19 11:40:16;;;;;;;3.40;2.57;;;6.90;99.90;;;;;;5014746;28;20174;-80
2021/12/19 11:42:42;;;;;;;4.10;2.03;;;7.00;99.90;;;;;;5047628;28;20211;-79
2021/12/19 11:47:50;;;;;;;1.93;1.50;;;6.90;99.90;;;;;;5074769;28;20269;-79
2021/12/19 11:50:28;;;;;;;2.10;1.40;;;7.00;99.90;;;;;;5056904;28;20171;-79
2021/12/19 11:53:16;;;;;;;1.60;1.23;;;6.90;99.90;;;;;;5075118;28;20686;-80
2021/12/19 11:55:44;;;;;;;1.90;1.63;;;7.00;99.90;;;;;;5074681;28;20237;-79
2021/12/19 11:58:12;;;;;;;1.70;1.60;;;7.00;99.90;;;;;;5056908;28;20581;-79
2021/12/19 12:00:39;;;;;;;3.07;1.60;;;7.00;99.90;;;;;;5057055;28;20722;-79
2021/12/19 12:03:14;;;;;;;1.97;1.60;;;7.00;99.90;;;;;;5057131;28;20187;-79
2021/12/19 12:05:45;;;;;;;2.60;1.53;;;7.00;99.90;;;;;;5077039;28;20178;-80
2021/12/19 12:08:22;;;;;;;3.00;1.80;;;7.00;99.90;;;;;;5076407;28;20217;-80
2021/12/19 12:10:47;;;;;;;2.63;1.50;;;7.00;99.90;;;;;;5058951;28;20172;-79
2021/12/19 12:13:25;;;;;;;1.63;1.30;;;7.00;99.90;;;;;;5077090;28;20588;-79
2021/12/19 12:15:59;;;;;;;2.07;1.23;;;6.90;99.90;;;;;;5076880;28;20175;-80
2021/12/19 12:18:28;;;;;;;2.60;1.30;;;7.00;99.90;;;;;;5058859;28;20202;-80
2021/12/19 12:20:54;;;;;;;1.53;1.17;;;6.90;99.90;;;;;;5077285;28;20193;-80
2021/12/19 12:23:25;;;;;;;1.53;1.10;;;6.90;99.90;;;;;;5058631;28;20183;-79
2021/12/19 12:25:51;;;;;;;1.27;1.00;;;6.90;99.90;;;;;;5077459;28;20307;-79
2021/12/19 12:28:19;;;;;;;1.37;1.10;;;6.90;99.90;;;;;;5094548;23;20259;-94
2021/12/19 12:30:54;;;;;;;1.30;1.13;;;6.90;99.90;;;;;;5052910;28;20175;-94
2021/12/19 12:34:25;;;;;;;2.27;1.53;;;7.00;99.90;;;;;;5061066;28;20189;-95
2021/12/19 12:36:25;;;;;;;1.87;1.13;;;7.00;99.90;;;;;;5061161;28;20198;-95
2021/12/19 12:38:52;;;;;;;4.07;1.40;;;7.00;99.90;;;;;;5050340;28;20184;-93
2021/12/19 12:43:46;;;;;;;1.50;1.37;;;7.00;99.90;;;;;;5078370;23;20223;-79
2021/12/19 12:46:20;;;;;;;2.07;1.57;;;7.00;99.90;;;;;;5059059;28;20191;-80
2021/12/19 12:49:06;;;;;;;3.07;1.67;;;7.40;99.90;;;;;;5061260;28;20665;-80
2021/12/19 12:51:58;;;;;;;2.17;1.20;;;7.00;99.90;;;;;;5060354;28;20679;-79
2021/12/19 12:54:36;;;;;;;2.33;1.57;;;7.00;99.90;;;;;;5079030;28;20316;-80
2021/12/19 12:57:10;;;;;;;3.60;1.60;;;6.90;99.90;;;;;;5078529;28;20163;-79
2021/12/19 12:59:39;;;;;;;1.60;1.30;;;6.90;99.90;;;;;;5078928;28;20191;-79
2021/12/19 13:04:39;;;;;;;1.63;1.40;;;6.90;99.90;;;;;;5078481;28;20174;-79
2021/12/19 13:07:22;;;;;;;3.27;1.53;;;6.90;99.90;;;;;;5060242;28;20202;-79
2021/12/19 13:09:57;;;;;;;8.17;2.13;;;6.90;99.90;;;;;;5078221;28;20224;-79
2021/12/19 13:12:36;;;;;;;4.40;1.90;;;6.90;99.90;;;;;;5078471;28;20304;-79
2021/12/19 13:15:12;;;;;;;4.00;2.00;;;6.90;99.90;;;;;;5078349;28;20548;-80
2021/12/19 13:17:50;;;;;;;4.77;2.27;;;6.90;99.90;;;;;;5078044;28;20677;-79
2021/12/19 13:20:24;;;;;;;3.17;2.27;;;6.90;99.90;;;;;;5060289;28;20182;-80
2021/12/19 13:22:52;;;;;;;4.60;2.13;;;6.90;99.90;;;;;;5060134;28;20280;-79
2021/12/19 13:25:25;;;;;;;4.80;2.10;;;6.90;99.90;;;;;;5060589;28;20749;-80
2021/12/19 13:27:52;;;;;;;3.33;2.23;;;6.90;99.90;;;;;;5077473;28;20202;-79
2021/12/19 13:30:25;;;;;;;4.63;2.10;;;6.90;99.90;;;;;;5059725;28;20244;-79
2021/12/19 13:33:10;;;;;;;2.73;2.00;;;7.00;99.90;;;;;;5077834;28;20188;-79
2021/12/19 13:35:48;;;;;;;4.17;2.20;;;7.00;99.90;;;;;;5078002;28;20170;-79
2021/12/19 13:38:22;;;;;;;4.63;2.50;;;6.90;99.90;;;;;;5060198;28;20265;-79
2021/12/19 13:40:56;;;;;;;3.43;2.70;;;6.90;99.90;;;;;;5059991;28;20208;-80
2021/12/19 13:43:34;;;;;;;6.27;2.83;;;6.90;99.90;;;;;;5077452;28;20190;-80
2021/12/19 13:46:10;;;;;;;2.73;2.30;;;6.90;99.90;;;;;;5077967;28;20663;-79
2021/12/19 13:48:49;;;;;;;7.53;2.60;;;6.80;99.90;;;;;;5078042;28;20278;-79
2021/12/19 13:51:18;;;;;;;6.00;2.83;;;6.90;99.90;;;;;;5060517;28;20195;-79
2021/12/19 13:53:50;;;;;;;5.77;3.27;;;6.90;99.90;;;;;;5078901;28;20243;-79
2021/12/19 13:56:18;;;;;;;5.73;3.03;;;6.90;99.90;;;;;;5077621;28;20160;-79
2021/12/19 13:58:49;;;;;;;5.03;3.17;;;6.90;99.90;;;;;;5059158;28;20199;-79
2021/12/19 14:01:19;;;;;;;4.67;3.10;;;6.80;99.90;;;;;;5059432;28;20179;-79
2021/12/19 14:03:59;;;;;;;5.10;3.07;;;6.90;99.90;;;;;;5076811;28;20684;-79
2021/12/19 14:06:35;;;;;;;6.97;3.13;;;6.90;99.90;;;;;;5060277;28;20174;-79
2021/12/19 14:09:06;;;;;;;5.37;2.87;;;6.90;99.90;;;;;;5077770;28;20276;-79
2021/12/19 14:11:34;;;;;;;3.23;2.37;;;6.90;99.90;;;;;;5059323;28;20221;-79
2021/12/19 14:14:11;;;;;;;5.67;3.23;;;6.90;99.90;;;;;;5077104;28;20544;-80
2021/12/19 14:16:45;;;;;;;7.67;3.57;;;6.90;99.90;;;;;;5058965;28;20175;-79